sensor_id;sensor_type;location;lat;lon;timestamp;P1;durP1;ratioP1;P2;durP2;ratioP2
54935;SDS011;40838;50.676;7.838;2022-10-10T00:00:29;2.58;;;1.45;;
54935;SDS011;40838;50.676;7.838;2022-10-10T00:02:55;10.57;;;2.42;;
54935;SDS011;40838;50.676;7.838;2022-10-10T00:05:23;4.47;;;1.58;;
54935;SDS011;40838;50.676;7.838;2022-10-10T00:07:50;2.72;;;1.70;;
54935;SDS011;40838;50.676;7.838;2022-10-10T00:10:19;5.53;;;2.08;;
54935;SDS011;40838;50.676;7.838;2022-10-10T00:12:47;4.20;;;1.60;;
54935;SDS011;40838;50.676;7.838;2022-10-10T00:15:14;3.30;;;1.77;;
54935;SDS011;40838;50.676;7.838;2022-10-10T00:17:41;4.25;;;1.98;;
54935;SDS011;40838;50.676;7.838;2022-10-10T00:20:08;3.40;;;1.85;;
54935;SDS011;40838;50.676;7.838;2022-10-10T00:22:36;5.80;;;1.65;;
54935;SDS011;40838;50.676;7.838;2022-10-10T00:25:03;2.30;;;1.50;;
54935;SDS011;40838;50.676;7.838;2022-10-10T00:27:30;3.22;;;1.90;;
54935;SDS011;40838;50.676;7.838;2022-10-10T00:29:57;3.45;;;1.70;;
54935;SDS011;40838;50.676;7.838;2022-10-10T00:32:24;5.18;;;1.80;;
54935;SDS011;40838;50.676;7.838;2022-10-10T00:34:51;4.65;;;1.77;;
54935;SDS011;40838;50.676;7.838;2022-10-10T00:37:17;10.52;;;1.70;;
54935;SDS011;40838;50.676;7.838;2022-10-10T00:39:45;4.65;;;1.40;;
54935;SDS011;40838;50.676;7.838;2022-10-10T00:42:12;8.45;;;2.78;;
54935;SDS011;40838;50.676;7.838;2022-10-10T00:44:39;2.70;;;1.67;;
54935;SDS011;40838;50.676;7.838;2022-10-10T00:47:06;4.95;;;1.80;;
54935;SDS011;40838;50.676;7.838;2022-10-10T00:49:33;6.35;;;2.45;;
54935;SDS011;40838;50.676;7.838;2022-10-10T00:52:01;2.90;;;1.83;;
54935;SDS011;40838;50.676;7.838;2022-10-10T00:54:28;2.55;;;1.58;;
54935;SDS011;40838;50.676;7.838;2022-10-10T00:56:59;4.45;;;1.90;;
54935;SDS011;40838;50.676;7.838;2022-10-10T00:59:28;7.30;;;2.00;;
54935;SDS011;40838;50.676;7.838;2022-10-10T01:01:59;3.67;;;1.77;;
54935;SDS011;40838;50.676;7.838;2022-10-10T01:04:28;14.88;;;3.05;;
54935;SDS011;40838;50.676;7.838;2022-10-10T01:06:54;3.40;;;1.80;;
54935;SDS011;40838;50.676;7.838;2022-10-10T01:09:21;2.72;;;1.73;;
54935;SDS011;40838;50.676;7.838;2022-10-10T01:11:50;1.50;;;1.30;;
54935;SDS011;40838;50.676;7.838;2022-10-10T01:14:22;8.30;;;3.03;;
54935;SDS011;40838;50.676;7.838;2022-10-10T01:16:53;6.18;;;2.05;;
54935;SDS011;40838;50.676;7.838;2022-10-10T01:19:29;3.20;;;1.70;;
54935;SDS011;40838;50.676;7.838;2022-10-10T01:22:04;4.47;;;1.98;;
54935;SDS011;40838;50.676;7.838;2022-10-10T01:24:48;4.93;;;2.10;;
54935;SDS011;40838;50.676;7.838;2022-10-10T01:27:20;3.00;;;1.80;;
54935;SDS011;40838;50.676;7.838;2022-10-10T01:29:51;3.50;;;1.92;;
54935;SDS011;40838;50.676;7.838;2022-10-10T01:32:21;4.22;;;1.50;;
54935;SDS011;40838;50.676;7.838;2022-10-10T01:34:53;9.55;;;2.30;;
54935;SDS011;40838;50.676;7.838;2022-10-10T01:37:22;3.58;;;2.03;;
54935;SDS011;40838;50.676;7.838;2022-10-10T01:39:51;3.70;;;1.58;;
54935;SDS011;40838;50.676;7.838;2022-10-10T01:42:22;6.55;;;1.92;;
54935;SDS011;40838;50.676;7.838;2022-10-10T01:44:51;2.75;;;1.83;;
54935;SDS011;40838;50.676;7.838;2022-10-10T01:47:18;3.70;;;1.90;;
54935;SDS011;40838;50.676;7.838;2022-10-10T01:49:46;4.57;;;2.10;;
54935;SDS011;40838;50.676;7.838;2022-10-10T01:52:16;9.52;;;2.03;;
54935;SDS011;40838;50.676;7.838;2022-10-10T01:54:48;3.75;;;1.98;;
54935;SDS011;40838;50.676;7.838;2022-10-10T01:57:18;4.32;;;1.90;;
54935;SDS011;40838;50.676;7.838;2022-10-10T01:59:48;3.80;;;2.10;;
54935;SDS011;40838;50.676;7.838;2022-10-10T02:02:20;2.45;;;1.73;;
54935;SDS011;40838;50.676;7.838;2022-10-10T02:04:49;3.40;;;1.90;;
54935;SDS011;40838;50.676;7.838;2022-10-10T02:07:22;2.17;;;1.98;;
54935;SDS011;40838;50.676;7.838;2022-10-10T02:09:50;3.08;;;2.08;;
54935;SDS011;40838;50.676;7.838;2022-10-10T02:12:17;5.32;;;2.30;;
54935;SDS011;40838;50.676;7.838;2022-10-10T02:14:46;2.58;;;2.15;;
54935;SDS011;40838;50.676;7.838;2022-10-10T02:17:14;3.38;;;2.00;;
54935;SDS011;40838;50.676;7.838;2022-10-10T02:19:43;5.13;;;2.20;;
54935;SDS011;40838;50.676;7.838;2022-10-10T02:22:11;5.85;;;2.53;;
54935;SDS011;40838;50.676;7.838;2022-10-10T02:24:39;11.30;;;3.03;;
54935;SDS011;40838;50.676;7.838;2022-10-10T02:27:07;5.38;;;2.05;;
54935;SDS011;40838;50.676;7.838;2022-10-10T02:29:35;3.45;;;2.17;;
54935;SDS011;40838;50.676;7.838;2022-10-10T02:32:03;6.70;;;2.33;;
54935;SDS011;40838;50.676;7.838;2022-10-10T02:34:32;6.30;;;2.40;;
54935;SDS011;40838;50.676;7.838;2022-10-10T02:37:02;9.80;;;2.60;;
54935;SDS011;40838;50.676;7.838;2022-10-10T02:39:30;4.63;;;2.10;;
54935;SDS011;40838;50.676;7.838;2022-10-10T02:41:58;6.95;;;2.40;;
54935;SDS011;40838;50.676;7.838;2022-10-10T02:44:25;4.60;;;2.72;;
54935;SDS011;40838;50.676;7.838;2022-10-10T02:46:52;9.73;;;2.47;;
54935;SDS011;40838;50.676;7.838;2022-10-10T02:49:21;3.35;;;2.00;;
54935;SDS011;40838;50.676;7.838;2022-10-10T02:51:48;3.22;;;2.00;;
54935;SDS011;40838;50.676;7.838;2022-10-10T02:54:16;6.13;;;2.90;;
54935;SDS011;40838;50.676;7.838;2022-10-10T02:56:42;3.75;;;2.35;;
54935;SDS011;40838;50.676;7.838;2022-10-10T02:59:09;4.00;;;2.72;;
54935;SDS011;40838;50.676;7.838;2022-10-10T03:01:36;7.95;;;2.67;;
54935;SDS011;40838;50.676;7.838;2022-10-10T03:04:02;2.63;;;2.17;;
54935;SDS011;40838;50.676;7.838;2022-10-10T03:06:29;8.75;;;2.53;;
54935;SDS011;40838;50.676;7.838;2022-10-10T03:08:55;4.20;;;2.50;;
54935;SDS011;40838;50.676;7.838;2022-10-10T03:11:23;8.52;;;2.67;;
54935;SDS011;40838;50.676;7.838;2022-10-10T03:13:50;6.47;;;2.63;;
54935;SDS011;40838;50.676;7.838;2022-10-10T03:16:17;6.78;;;2.30;;
54935;SDS011;40838;50.676;7.838;2022-10-10T03:18:46;6.43;;;2.63;;
54935;SDS011;40838;50.676;7.838;2022-10-10T03:21:12;6.30;;;2.60;;
54935;SDS011;40838;50.676;7.838;2022-10-10T03:23:39;7.20;;;2.80;;
54935;SDS011;40838;50.676;7.838;2022-10-10T03:26:05;6.55;;;2.83;;
54935;SDS011;40838;50.676;7.838;2022-10-10T03:28:35;7.93;;;2.30;;
54935;SDS011;40838;50.676;7.838;2022-10-10T03:31:02;6.63;;;2.55;;
54935;SDS011;40838;50.676;7.838;2022-10-10T03:33:28;6.57;;;2.78;;
54935;SDS011;40838;50.676;7.838;2022-10-10T03:35:55;3.47;;;2.33;;
54935;SDS011;40838;50.676;7.838;2022-10-10T03:38:22;8.02;;;2.75;;
54935;SDS011;40838;50.676;7.838;2022-10-10T03:40:48;3.03;;;2.13;;
54935;SDS011;40838;50.676;7.838;2022-10-10T03:43:15;6.70;;;2.50;;
54935;SDS011;40838;50.676;7.838;2022-10-10T03:45:43;8.75;;;2.42;;
54935;SDS011;40838;50.676;7.838;2022-10-10T03:48:10;7.22;;;2.53;;
54935;SDS011;40838;50.676;7.838;2022-10-10T03:50:36;5.90;;;2.55;;
54935;SDS011;40838;50.676;7.838;2022-10-10T03:53:03;9.30;;;3.42;;
54935;SDS011;40838;50.676;7.838;2022-10-10T03:55:30;4.75;;;2.60;;
54935;SDS011;40838;50.676;7.838;2022-10-10T03:57:57;8.52;;;3.17;;
54935;SDS011;40838;50.676;7.838;2022-10-10T04:00:23;7.60;;;2.88;;
54935;SDS011;40838;50.676;7.838;2022-10-10T04:02:54;6.18;;;2.67;;
54935;SDS011;40838;50.676;7.838;2022-10-10T04:05:22;8.38;;;2.58;;
54935;SDS011;40838;50.676;7.838;2022-10-10T04:07:49;3.75;;;2.47;;
54935;SDS011;40838;50.676;7.838;2022-10-10T04:10:15;8.02;;;2.20;;
54935;SDS011;40838;50.676;7.838;2022-10-10T04:12:42;6.90;;;2.70;;
54935;SDS011;40838;50.676;7.838;2022-10-10T04:15:09;3.20;;;2.55;;
54935;SDS011;40838;50.676;7.838;2022-10-10T04:17:35;7.68;;;3.53;;
54935;SDS011;40838;50.676;7.838;2022-10-10T04:20:04;2.33;;;1.98;;
54935;SDS011;40838;50.676;7.838;2022-10-10T04:22:30;8.48;;;2.63;;
54935;SDS011;40838;50.676;7.838;2022-10-10T04:24:57;9.27;;;2.92;;
54935;SDS011;40838;50.676;7.838;2022-10-10T04:27:23;7.28;;;2.97;;
54935;SDS011;40838;50.676;7.838;2022-10-10T04:29:50;6.03;;;2.88;;
54935;SDS011;40838;50.676;7.838;2022-10-10T04:32:16;6.78;;;2.75;;
54935;SDS011;40838;50.676;7.838;2022-10-10T04:34:43;6.88;;;3.20;;
54935;SDS011;40838;50.676;7.838;2022-10-10T04:37:12;5.75;;;2.65;;
54935;SDS011;40838;50.676;7.838;2022-10-10T04:39:39;5.32;;;2.58;;
54935;SDS011;40838;50.676;7.838;2022-10-10T04:42:06;8.15;;;2.53;;
54935;SDS011;40838;50.676;7.838;2022-10-10T04:44:32;5.00;;;3.00;;
54935;SDS011;40838;50.676;7.838;2022-10-10T04:46:59;5.07;;;2.83;;
54935;SDS011;40838;50.676;7.838;2022-10-10T04:49:25;6.25;;;2.80;;
54935;SDS011;40838;50.676;7.838;2022-10-10T04:51:52;6.32;;;3.03;;
54935;SDS011;40838;50.676;7.838;2022-10-10T04:54:20;11.10;;;3.50;;
54935;SDS011;40838;50.676;7.838;2022-10-10T04:56:47;4.68;;;3.20;;
54935;SDS011;40838;50.676;7.838;2022-10-10T04:59:14;4.30;;;3.15;;
54935;SDS011;40838;50.676;7.838;2022-10-10T05:01:40;6.50;;;3.55;;
54935;SDS011;40838;50.676;7.838;2022-10-10T05:04:11;6.40;;;3.40;;
54935;SDS011;40838;50.676;7.838;2022-10-10T05:06:40;6.97;;;3.95;;
54935;SDS011;40838;50.676;7.838;2022-10-10T05:09:06;4.82;;;3.40;;
54935;SDS011;40838;50.676;7.838;2022-10-10T05:11:34;6.90;;;3.30;;
54935;SDS011;40838;50.676;7.838;2022-10-10T05:14:01;5.47;;;3.35;;
54935;SDS011;40838;50.676;7.838;2022-10-10T05:16:28;6.05;;;3.50;;
54935;SDS011;40838;50.676;7.838;2022-10-10T05:18:54;6.15;;;3.45;;
54935;SDS011;40838;50.676;7.838;2022-10-10T05:21:22;5.38;;;3.35;;
54935;SDS011;40838;50.676;7.838;2022-10-10T05:23:48;6.68;;;3.67;;
54935;SDS011;40838;50.676;7.838;2022-10-10T05:26:15;7.82;;;3.40;;
54935;SDS011;40838;50.676;7.838;2022-10-10T05:28:45;6.82;;;3.63;;
54935;SDS011;40838;50.676;7.838;2022-10-10T05:31:14;8.25;;;3.83;;
54935;SDS011;40838;50.676;7.838;2022-10-10T05:33:43;13.88;;;4.05;;
54935;SDS011;40838;50.676;7.838;2022-10-10T05:36:10;11.18;;;4.32;;
54935;SDS011;40838;50.676;7.838;2022-10-10T05:38:37;8.70;;;3.83;;
54935;SDS011;40838;50.676;7.838;2022-10-10T05:41:04;9.02;;;3.78;;
54935;SDS011;40838;50.676;7.838;2022-10-10T05:43:30;5.53;;;3.50;;
54935;SDS011;40838;50.676;7.838;2022-10-10T05:45:58;7.95;;;3.95;;
54935;SDS011;40838;50.676;7.838;2022-10-10T05:48:27;7.55;;;3.63;;
54935;SDS011;40838;50.676;7.838;2022-10-10T05:51:07;8.48;;;4.00;;
54935;SDS011;40838;50.676;7.838;2022-10-10T05:53:36;9.15;;;4.28;;
54935;SDS011;40838;50.676;7.838;2022-10-10T05:56:03;5.35;;;3.45;;
54935;SDS011;40838;50.676;7.838;2022-10-10T05:58:29;6.57;;;3.78;;
54935;SDS011;40838;50.676;7.838;2022-10-10T06:01:00;7.88;;;3.75;;
54935;SDS011;40838;50.676;7.838;2022-10-10T06:03:27;5.80;;;4.15;;
54935;SDS011;40838;50.676;7.838;2022-10-10T06:05:53;12.98;;;4.47;;
54935;SDS011;40838;50.676;7.838;2022-10-10T06:08:21;9.02;;;4.10;;
54935;SDS011;40838;50.676;7.838;2022-10-10T06:10:48;6.75;;;3.42;;
54935;SDS011;40838;50.676;7.838;2022-10-10T06:13:15;8.75;;;3.92;;
54935;SDS011;40838;50.676;7.838;2022-10-10T06:15:42;8.48;;;3.92;;
54935;SDS011;40838;50.676;7.838;2022-10-10T06:18:10;5.75;;;3.85;;
54935;SDS011;40838;50.676;7.838;2022-10-10T06:20:37;4.72;;;3.33;;
54935;SDS011;40838;50.676;7.838;2022-10-10T06:23:05;5.00;;;3.47;;
54935;SDS011;40838;50.676;7.838;2022-10-10T06:25:32;6.30;;;3.28;;
54935;SDS011;40838;50.676;7.838;2022-10-10T06:27:59;5.85;;;3.33;;
54935;SDS011;40838;50.676;7.838;2022-10-10T06:30:26;9.85;;;3.75;;
54935;SDS011;40838;50.676;7.838;2022-10-10T06:32:52;5.05;;;3.30;;
54935;SDS011;40838;50.676;7.838;2022-10-10T06:35:20;8.50;;;3.03;;
54935;SDS011;40838;50.676;7.838;2022-10-10T06:37:47;6.07;;;3.40;;
54935;SDS011;40838;50.676;7.838;2022-10-10T06:40:13;7.43;;;3.45;;
54935;SDS011;40838;50.676;7.838;2022-10-10T06:42:40;5.38;;;3.38;;
54935;SDS011;40838;50.676;7.838;2022-10-10T06:45:08;7.40;;;3.35;;
54935;SDS011;40838;50.676;7.838;2022-10-10T06:47:35;3.95;;;3.08;;
54935;SDS011;40838;50.676;7.838;2022-10-10T06:50:01;7.80;;;3.30;;
54935;SDS011;40838;50.676;7.838;2022-10-10T06:52:29;9.07;;;3.40;;
54935;SDS011;40838;50.676;7.838;2022-10-10T06:54:56;7.70;;;3.47;;
54935;SDS011;40838;50.676;7.838;2022-10-10T06:57:22;8.73;;;3.45;;
54935;SDS011;40838;50.676;7.838;2022-10-10T06:59:49;7.28;;;3.50;;
54935;SDS011;40838;50.676;7.838;2022-10-10T07:02:15;8.88;;;3.30;;
54935;SDS011;40838;50.676;7.838;2022-10-10T07:04:42;7.78;;;3.72;;
54935;SDS011;40838;50.676;7.838;2022-10-10T07:07:09;10.73;;;3.30;;
54935;SDS011;40838;50.676;7.838;2022-10-10T07:09:36;6.57;;;3.60;;
54935;SDS011;40838;50.676;7.838;2022-10-10T07:12:03;6.82;;;3.58;;
54935;SDS011;40838;50.676;7.838;2022-10-10T07:14:30;7.63;;;2.97;;
54935;SDS011;40838;50.676;7.838;2022-10-10T07:16:56;4.57;;;3.20;;
54935;SDS011;40838;50.676;7.838;2022-10-10T07:19:25;7.63;;;3.67;;
54935;SDS011;40838;50.676;7.838;2022-10-10T07:21:52;9.23;;;3.83;;
54935;SDS011;40838;50.676;7.838;2022-10-10T07:24:18;4.10;;;2.75;;
54935;SDS011;40838;50.676;7.838;2022-10-10T07:26:46;7.63;;;3.42;;
54935;SDS011;40838;50.676;7.838;2022-10-10T07:29:16;6.93;;;2.97;;
54935;SDS011;40838;50.676;7.838;2022-10-10T07:31:43;8.27;;;4.05;;
54935;SDS011;40838;50.676;7.838;2022-10-10T07:34:11;7.13;;;3.60;;
54935;SDS011;40838;50.676;7.838;2022-10-10T07:36:37;5.85;;;3.17;;
54935;SDS011;40838;50.676;7.838;2022-10-10T07:39:04;7.05;;;3.30;;
54935;SDS011;40838;50.676;7.838;2022-10-10T07:41:30;5.38;;;3.30;;
54935;SDS011;40838;50.676;7.838;2022-10-10T07:43:58;6.75;;;3.22;;
54935;SDS011;40838;50.676;7.838;2022-10-10T07:46:25;5.88;;;3.20;;
54935;SDS011;40838;50.676;7.838;2022-10-10T07:48:54;5.35;;;2.92;;
54935;SDS011;40838;50.676;7.838;2022-10-10T07:51:21;4.18;;;2.67;;
54935;SDS011;40838;50.676;7.838;2022-10-10T07:53:47;5.38;;;3.03;;
54935;SDS011;40838;50.676;7.838;2022-10-10T07:56:14;6.72;;;3.20;;
54935;SDS011;40838;50.676;7.838;2022-10-10T07:58:41;3.90;;;2.80;;
54935;SDS011;40838;50.676;7.838;2022-10-10T08:01:09;6.20;;;2.60;;
54935;SDS011;40838;50.676;7.838;2022-10-10T08:03:36;5.55;;;3.00;;
54935;SDS011;40838;50.676;7.838;2022-10-10T08:06:04;5.15;;;2.80;;
54935;SDS011;40838;50.676;7.838;2022-10-10T08:08:31;13.80;;;3.10;;
54935;SDS011;40838;50.676;7.838;2022-10-10T08:10:57;9.88;;;2.50;;
54935;SDS011;40838;50.676;7.838;2022-10-10T08:13:24;3.92;;;2.60;;
54935;SDS011;40838;50.676;7.838;2022-10-10T08:15:51;5.53;;;2.38;;
54935;SDS011;40838;50.676;7.838;2022-10-10T08:18:19;3.95;;;1.98;;
54935;SDS011;40838;50.676;7.838;2022-10-10T08:20:46;5.30;;;2.70;;
54935;SDS011;40838;50.676;7.838;2022-10-10T08:23:12;6.47;;;2.17;;
54935;SDS011;40838;50.676;7.838;2022-10-10T08:25:39;4.15;;;2.20;;
54935;SDS011;40838;50.676;7.838;2022-10-10T08:28:06;4.50;;;2.70;;
54935;SDS011;40838;50.676;7.838;2022-10-10T08:30:32;6.05;;;2.67;;
54935;SDS011;40838;50.676;7.838;2022-10-10T08:32:59;5.88;;;2.10;;
54935;SDS011;40838;50.676;7.838;2022-10-10T08:35:27;4.65;;;2.50;;
54935;SDS011;40838;50.676;7.838;2022-10-10T08:37:54;3.90;;;2.10;;
54935;SDS011;40838;50.676;7.838;2022-10-10T08:40:20;6.03;;;2.50;;
54935;SDS011;40838;50.676;7.838;2022-10-10T08:42:53;13.27;;;2.63;;
54935;SDS011;40838;50.676;7.838;2022-10-10T08:45:26;5.57;;;2.28;;
54935;SDS011;40838;50.676;7.838;2022-10-10T08:47:54;5.10;;;2.05;;
54935;SDS011;40838;50.676;7.838;2022-10-10T08:50:23;3.92;;;2.35;;
54935;SDS011;40838;50.676;7.838;2022-10-10T08:52:54;5.80;;;2.63;;
54935;SDS011;40838;50.676;7.838;2022-10-10T08:55:23;6.13;;;2.47;;
54935;SDS011;40838;50.676;7.838;2022-10-10T08:57:54;5.47;;;2.70;;
54935;SDS011;40838;50.676;7.838;2022-10-10T09:00:22;5.13;;;2.53;;
54935;SDS011;40838;50.676;7.838;2022-10-10T09:02:51;6.60;;;2.38;;
54935;SDS011;40838;50.676;7.838;2022-10-10T09:05:28;6.55;;;3.05;;
54935;SDS011;40838;50.676;7.838;2022-10-10T09:08:10;6.03;;;2.40;;
54935;SDS011;40838;50.676;7.838;2022-10-10T09:10:45;4.20;;;2.58;;
54935;SDS011;40838;50.676;7.838;2022-10-10T09:13:17;8.02;;;3.13;;
54935;SDS011;40838;50.676;7.838;2022-10-10T09:15:51;6.90;;;2.47;;
54935;SDS011;40838;50.676;7.838;2022-10-10T09:18:21;5.20;;;2.83;;
54935;SDS011;40838;50.676;7.838;2022-10-10T09:20:52;9.43;;;3.05;;
54935;SDS011;40838;50.676;7.838;2022-10-10T09:23:28;10.55;;;2.75;;
54935;SDS011;40838;50.676;7.838;2022-10-10T09:25:56;6.15;;;2.75;;
54935;SDS011;40838;50.676;7.838;2022-10-10T09:28:29;4.63;;;3.28;;
54935;SDS011;40838;50.676;7.838;2022-10-10T09:30:59;5.75;;;2.70;;
54935;SDS011;40838;50.676;7.838;2022-10-10T09:33:27;7.40;;;2.92;;
54935;SDS011;40838;50.676;7.838;2022-10-10T09:35:57;7.40;;;2.65;;
54935;SDS011;40838;50.676;7.838;2022-10-10T09:38:29;6.00;;;2.60;;
54935;SDS011;40838;50.676;7.838;2022-10-10T09:41:01;7.93;;;2.58;;
54935;SDS011;40838;50.676;7.838;2022-10-10T09:43:30;9.02;;;3.03;;
54935;SDS011;40838;50.676;7.838;2022-10-10T09:45:57;7.85;;;3.28;;
54935;SDS011;40838;50.676;7.838;2022-10-10T09:48:26;6.30;;;2.65;;
54935;SDS011;40838;50.676;7.838;2022-10-10T09:50:54;7.35;;;2.88;;
54935;SDS011;40838;50.676;7.838;2022-10-10T09:53:20;9.18;;;3.05;;
54935;SDS011;40838;50.676;7.838;2022-10-10T09:55:48;7.28;;;3.35;;
54935;SDS011;40838;50.676;7.838;2022-10-10T09:58:19;10.38;;;3.15;;
54935;SDS011;40838;50.676;7.838;2022-10-10T10:00:48;5.60;;;2.88;;
54935;SDS011;40838;50.676;7.838;2022-10-10T10:03:16;6.07;;;3.28;;
54935;SDS011;40838;50.676;7.838;2022-10-10T10:05:44;5.90;;;2.60;;
54935;SDS011;40838;50.676;7.838;2022-10-10T10:08:17;6.30;;;2.83;;
54935;SDS011;40838;50.676;7.838;2022-10-10T10:10:44;7.50;;;3.10;;
54935;SDS011;40838;50.676;7.838;2022-10-10T10:13:13;6.70;;;2.90;;
54935;SDS011;40838;50.676;7.838;2022-10-10T10:15:42;10.10;;;3.33;;
54935;SDS011;40838;50.676;7.838;2022-10-10T10:18:19;7.47;;;2.58;;
54935;SDS011;40838;50.676;7.838;2022-10-10T10:20:49;8.20;;;3.00;;
54935;SDS011;40838;50.676;7.838;2022-10-10T10:23:22;11.00;;;2.85;;
54935;SDS011;40838;50.676;7.838;2022-10-10T10:25:55;4.40;;;2.47;;
54935;SDS011;40838;50.676;7.838;2022-10-10T10:28:24;16.55;;;3.85;;
54935;SDS011;40838;50.676;7.838;2022-10-10T10:30:52;5.50;;;3.03;;
54935;SDS011;40838;50.676;7.838;2022-10-10T10:33:22;8.43;;;2.70;;
54935;SDS011;40838;50.676;7.838;2022-10-10T10:35:50;6.18;;;2.83;;
54935;SDS011;40838;50.676;7.838;2022-10-10T10:38:23;10.20;;;3.10;;
54935;SDS011;40838;50.676;7.838;2022-10-10T10:40:56;7.10;;;3.20;;
54935;SDS011;40838;50.676;7.838;2022-10-10T10:43:40;8.23;;;2.75;;
54935;SDS011;40838;50.676;7.838;2022-10-10T10:46:15;8.95;;;2.83;;
54935;SDS011;40838;50.676;7.838;2022-10-10T10:48:44;11.63;;;3.15;;
54935;SDS011;40838;50.676;7.838;2022-10-10T10:51:18;9.27;;;3.00;;
54935;SDS011;40838;50.676;7.838;2022-10-10T10:53:50;9.48;;;3.03;;
54935;SDS011;40838;50.676;7.838;2022-10-10T10:56:22;7.18;;;2.80;;
54935;SDS011;40838;50.676;7.838;2022-10-10T10:59:05;5.50;;;2.75;;
54935;SDS011;40838;50.676;7.838;2022-10-10T11:01:39;10.05;;;2.80;;
54935;SDS011;40838;50.676;7.838;2022-10-10T11:04:11;8.43;;;3.03;;
54935;SDS011;40838;50.676;7.838;2022-10-10T11:06:45;9.77;;;2.13;;
54935;SDS011;40838;50.676;7.838;2022-10-10T11:09:18;5.97;;;2.67;;
54935;SDS011;40838;50.676;7.838;2022-10-10T11:11:49;5.07;;;2.35;;
54935;SDS011;40838;50.676;7.838;2022-10-10T11:14:23;5.00;;;2.22;;
54935;SDS011;40838;50.676;7.838;2022-10-10T11:16:58;4.38;;;1.92;;
54935;SDS011;40838;50.676;7.838;2022-10-10T11:19:27;11.90;;;3.15;;
54935;SDS011;40838;50.676;7.838;2022-10-10T11:21:59;7.32;;;2.38;;
54935;SDS011;40838;50.676;7.838;2022-10-10T11:24:29;7.20;;;2.50;;
54935;SDS011;40838;50.676;7.838;2022-10-10T11:27:00;8.90;;;2.63;;
54935;SDS011;40838;50.676;7.838;2022-10-10T11:29:44;5.32;;;2.40;;
54935;SDS011;40838;50.676;7.838;2022-10-10T11:32:16;10.90;;;2.30;;
54935;SDS011;40838;50.676;7.838;2022-10-10T11:34:47;10.40;;;2.25;;
54935;SDS011;40838;50.676;7.838;2022-10-10T11:37:18;8.75;;;2.20;;
54935;SDS011;40838;50.676;7.838;2022-10-10T11:39:48;6.18;;;1.80;;
54935;SDS011;40838;50.676;7.838;2022-10-10T11:42:17;9.80;;;2.17;;
54935;SDS011;40838;50.676;7.838;2022-10-10T11:44:46;4.70;;;2.20;;
54935;SDS011;40838;50.676;7.838;2022-10-10T11:47:19;6.57;;;2.03;;
54935;SDS011;40838;50.676;7.838;2022-10-10T11:49:48;6.95;;;2.17;;
54935;SDS011;40838;50.676;7.838;2022-10-10T11:52:19;4.88;;;2.53;;
54935;SDS011;40838;50.676;7.838;2022-10-10T11:54:49;12.35;;;2.50;;
54935;SDS011;40838;50.676;7.838;2022-10-10T11:57:20;5.95;;;2.20;;
54935;SDS011;40838;50.676;7.838;2022-10-10T11:59:50;5.05;;;2.45;;
54935;SDS011;40838;50.676;7.838;2022-10-10T12:02:21;7.35;;;2.50;;
54935;SDS011;40838;50.676;7.838;2022-10-10T12:04:49;4.45;;;2.20;;
54935;SDS011;40838;50.676;7.838;2022-10-10T12:07:16;6.93;;;2.17;;
54935;SDS011;40838;50.676;7.838;2022-10-10T12:09:45;5.70;;;2.20;;
54935;SDS011;40838;50.676;7.838;2022-10-10T12:12:13;5.88;;;2.10;;
54935;SDS011;40838;50.676;7.838;2022-10-10T12:14:42;9.48;;;2.72;;
54935;SDS011;40838;50.676;7.838;2022-10-10T12:17:18;8.85;;;3.70;;
54935;SDS011;40838;50.676;7.838;2022-10-10T12:19:46;11.10;;;2.20;;
54935;SDS011;40838;50.676;7.838;2022-10-10T12:22:20;7.53;;;2.30;;
54935;SDS011;40838;50.676;7.838;2022-10-10T12:27:40;5.63;;;2.65;;
54935;SDS011;40838;50.676;7.838;2022-10-10T12:30:14;6.85;;;3.25;;
54935;SDS011;40838;50.676;7.838;2022-10-10T12:32:43;8.52;;;2.70;;
54935;SDS011;40838;50.676;7.838;2022-10-10T12:35:26;9.20;;;3.33;;
54935;SDS011;40838;50.676;7.838;2022-10-10T12:43:35;6.20;;;2.60;;
54935;SDS011;40838;50.676;7.838;2022-10-10T12:48:57;6.88;;;2.53;;
54935;SDS011;40838;50.676;7.838;2022-10-10T12:51:24;6.30;;;2.03;;
54935;SDS011;40838;50.676;7.838;2022-10-10T12:53:52;4.80;;;2.00;;
54935;SDS011;40838;50.676;7.838;2022-10-10T12:56:30;6.32;;;2.33;;
54935;SDS011;40838;50.676;7.838;2022-10-10T12:58:57;9.38;;;2.42;;
54935;SDS011;40838;50.676;7.838;2022-10-10T13:01:25;8.68;;;2.38;;
54935;SDS011;40838;50.676;7.838;2022-10-10T13:03:59;8.18;;;2.42;;
54935;SDS011;40838;50.676;7.838;2022-10-10T13:06:29;5.60;;;2.22;;
54935;SDS011;40838;50.676;7.838;2022-10-10T13:08:56;9.13;;;2.67;;
54935;SDS011;40838;50.676;7.838;2022-10-10T13:11:23;10.10;;;2.60;;
54935;SDS011;40838;50.676;7.838;2022-10-10T13:13:50;9.70;;;3.10;;
54935;SDS011;40838;50.676;7.838;2022-10-10T13:16:18;9.00;;;2.70;;
54935;SDS011;40838;50.676;7.838;2022-10-10T13:18:47;8.10;;;2.30;;
54935;SDS011;40838;50.676;7.838;2022-10-10T13:21:20;13.05;;;2.40;;
54935;SDS011;40838;50.676;7.838;2022-10-10T13:23:48;12.05;;;3.25;;
54935;SDS011;40838;50.676;7.838;2022-10-10T13:26:19;5.72;;;2.30;;
54935;SDS011;40838;50.676;7.838;2022-10-10T13:28:46;6.53;;;2.50;;
54935;SDS011;40838;50.676;7.838;2022-10-10T13:31:13;8.63;;;2.42;;
54935;SDS011;40838;50.676;7.838;2022-10-10T13:33:40;6.78;;;2.80;;
54935;SDS011;40838;50.676;7.838;2022-10-10T13:36:14;9.98;;;2.80;;
54935;SDS011;40838;50.676;7.838;2022-10-10T13:38:44;16.08;;;3.03;;
54935;SDS011;40838;50.676;7.838;2022-10-10T13:41:11;8.77;;;2.35;;
54935;SDS011;40838;50.676;7.838;2022-10-10T13:43:38;7.53;;;2.33;;
54935;SDS011;40838;50.676;7.838;2022-10-10T13:46:16;7.00;;;2.83;;
54935;SDS011;40838;50.676;7.838;2022-10-10T13:48:44;12.18;;;3.60;;
54935;SDS011;40838;50.676;7.838;2022-10-10T13:51:11;6.93;;;2.42;;
54935;SDS011;40838;50.676;7.838;2022-10-10T13:53:47;8.77;;;2.30;;
54935;SDS011;40838;50.676;7.838;2022-10-10T13:56:15;10.63;;;2.40;;
54935;SDS011;40838;50.676;7.838;2022-10-10T13:58:43;14.25;;;2.40;;
54935;SDS011;40838;50.676;7.838;2022-10-10T14:01:20;6.30;;;2.00;;
54935;SDS011;40838;50.676;7.838;2022-10-10T14:03:47;8.57;;;2.75;;
54935;SDS011;40838;50.676;7.838;2022-10-10T14:06:16;10.60;;;2.83;;
54935;SDS011;40838;50.676;7.838;2022-10-10T14:08:43;11.18;;;2.65;;
54935;SDS011;40838;50.676;7.838;2022-10-10T14:11:15;10.20;;;2.50;;
54935;SDS011;40838;50.676;7.838;2022-10-10T14:13:44;11.30;;;2.63;;
54935;SDS011;40838;50.676;7.838;2022-10-10T14:16:20;7.20;;;2.40;;
54935;SDS011;40838;50.676;7.838;2022-10-10T14:21:13;7.70;;;2.50;;
54935;SDS011;40838;50.676;7.838;2022-10-10T14:23:40;8.95;;;3.72;;
54935;SDS011;40838;50.676;7.838;2022-10-10T14:26:10;10.13;;;3.13;;
54935;SDS011;40838;50.676;7.838;2022-10-10T14:28:39;12.52;;;2.28;;
54935;SDS011;40838;50.676;7.838;2022-10-10T14:31:07;14.07;;;3.55;;
54935;SDS011;40838;50.676;7.838;2022-10-10T14:33:33;7.28;;;2.10;;
54935;SDS011;40838;50.676;7.838;2022-10-10T14:36:00;8.68;;;2.10;;
54935;SDS011;40838;50.676;7.838;2022-10-10T14:38:27;8.50;;;2.17;;
54935;SDS011;40838;50.676;7.838;2022-10-10T14:40:54;11.57;;;3.78;;
54935;SDS011;40838;50.676;7.838;2022-10-10T14:43:23;9.73;;;3.33;;
54935;SDS011;40838;50.676;7.838;2022-10-10T14:45:51;12.95;;;2.55;;
54935;SDS011;40838;50.676;7.838;2022-10-10T14:48:18;9.48;;;2.25;;
54935;SDS011;40838;50.676;7.838;2022-10-10T14:50:45;11.27;;;3.83;;
54935;SDS011;40838;50.676;7.838;2022-10-10T14:53:15;8.13;;;2.78;;
54935;SDS011;40838;50.676;7.838;2022-10-10T14:55:42;9.52;;;2.25;;
54935;SDS011;40838;50.676;7.838;2022-10-10T14:58:12;9.70;;;2.65;;
54935;SDS011;40838;50.676;7.838;2022-10-10T15:00:39;15.40;;;2.80;;
54935;SDS011;40838;50.676;7.838;2022-10-10T15:03:07;10.07;;;3.83;;
54935;SDS011;40838;50.676;7.838;2022-10-10T15:05:34;15.52;;;5.35;;
54935;SDS011;40838;50.676;7.838;2022-10-10T15:08:01;14.27;;;4.53;;